sensor_id;sensor_type;location;lat;lon;timestamp;P1;durP1;ratioP1;P2;durP2;ratioP2
20421;SDS011;10370;53.102;18.034;2023-04-21T00:04:21;32.45;;;17.55;;
20421;SDS011;10370;53.102;18.034;2023-04-21T00:09:47;33.67;;;17.80;;
20421;SDS011;10370;53.102;18.034;2023-04-21T00:15:11;32.10;;;17.60;;
20421;SDS011;10370;53.102;18.034;2023-04-21T00:20:35;34.08;;;18.42;;
20421;SDS011;10370;53.102;18.034;2023-04-21T00:26:00;36.45;;;18.00;;
20421;SDS011;10370;53.102;18.034;2023-04-21T00:31:25;32.05;;;16.90;;
20421;SDS011;10370;53.102;18.034;2023-04-21T00:36:50;33.25;;;18.15;;
20421;SDS011;10370;53.102;18.034;2023-04-21T00:42:15;34.17;;;18.60;;
20421;SDS011;10370;53.102;18.034;2023-04-21T00:47:36;35.78;;;18.50;;
20421;SDS011;10370;53.102;18.034;2023-04-21T00:53:03;29.73;;;17.25;;
20421;SDS011;10370;53.102;18.034;2023-04-21T00:58:29;28.42;;;16.67;;
20421;SDS011;10370;53.102;18.034;2023-04-21T01:03:58;33.45;;;17.40;;
20421;SDS011;10370;53.102;18.034;2023-04-21T01:09:24;29.20;;;17.05;;
20421;SDS011;10370;53.102;18.034;2023-04-21T01:14:49;29.45;;;17.13;;
20421;SDS011;10370;53.102;18.034;2023-04-21T01:20:16;35.50;;;17.95;;
20421;SDS011;10370;53.102;18.034;2023-04-21T01:25:39;35.38;;;16.80;;
20421;SDS011;10370;53.102;18.034;2023-04-21T01:31:06;29.92;;;16.90;;
20421;SDS011;10370;53.102;18.034;2023-04-21T01:36:35;27.83;;;16.02;;
20421;SDS011;10370;53.102;18.034;2023-04-21T01:41:59;33.10;;;17.55;;
20421;SDS011;10370;53.102;18.034;2023-04-21T01:47:23;29.55;;;16.88;;
20421;SDS011;10370;53.102;18.034;2023-04-21T01:52:47;28.23;;;16.08;;
20421;SDS011;10370;53.102;18.034;2023-04-21T01:58:12;31.42;;;16.05;;
20421;SDS011;10370;53.102;18.034;2023-04-21T02:03:37;25.33;;;15.30;;
20421;SDS011;10370;53.102;18.034;2023-04-21T02:09:03;28.77;;;15.55;;
20421;SDS011;10370;53.102;18.034;2023-04-21T02:14:30;28.80;;;15.82;;
20421;SDS011;10370;53.102;18.034;2023-04-21T02:19:57;30.38;;;15.70;;
20421;SDS011;10370;53.102;18.034;2023-04-21T02:25:27;27.02;;;15.50;;
20421;SDS011;10370;53.102;18.034;2023-04-21T02:30:50;30.90;;;16.80;;
20421;SDS011;10370;53.102;18.034;2023-04-21T02:36:17;32.67;;;17.25;;
20421;SDS011;10370;53.102;18.034;2023-04-21T02:41:43;27.42;;;15.63;;
20421;SDS011;10370;53.102;18.034;2023-04-21T02:47:07;29.02;;;16.33;;
20421;SDS011;10370;53.102;18.034;2023-04-21T02:52:35;28.30;;;15.73;;
20421;SDS011;10370;53.102;18.034;2023-04-21T02:58:00;28.77;;;16.20;;
20421;SDS011;10370;53.102;18.034;2023-04-21T03:03:23;29.88;;;15.95;;
20421;SDS011;10370;53.102;18.034;2023-04-21T03:08:49;26.63;;;15.85;;
20421;SDS011;10370;53.102;18.034;2023-04-21T03:14:14;33.03;;;17.38;;
20421;SDS011;10370;53.102;18.034;2023-04-21T03:19:39;31.83;;;16.75;;
20421;SDS011;10370;53.102;18.034;2023-04-21T03:25:04;39.03;;;17.05;;
20421;SDS011;10370;53.102;18.034;2023-04-21T03:30:31;31.52;;;17.40;;
20421;SDS011;10370;53.102;18.034;2023-04-21T03:35:58;34.80;;;17.35;;
20421;SDS011;10370;53.102;18.034;2023-04-21T03:41:21;32.17;;;17.35;;
20421;SDS011;10370;53.102;18.034;2023-04-21T03:46:44;35.83;;;17.25;;
20421;SDS011;10370;53.102;18.034;2023-04-21T03:52:13;33.10;;;17.58;;
20421;SDS011;10370;53.102;18.034;2023-04-21T03:57:40;32.50;;;16.67;;
20421;SDS011;10370;53.102;18.034;2023-04-21T04:03:10;29.00;;;16.52;;
20421;SDS011;10370;53.102;18.034;2023-04-21T04:08:33;28.90;;;17.50;;
20421;SDS011;10370;53.102;18.034;2023-04-21T04:13:56;28.25;;;16.65;;
20421;SDS011;10370;53.102;18.034;2023-04-21T04:19:18;30.35;;;17.92;;
20421;SDS011;10370;53.102;18.034;2023-04-21T04:24:51;32.17;;;17.70;;
20421;SDS011;10370;53.102;18.034;2023-04-21T04:30:17;30.15;;;17.67;;
20421;SDS011;10370;53.102;18.034;2023-04-21T04:35:44;36.13;;;18.30;;
20421;SDS011;10370;53.102;18.034;2023-04-21T04:41:09;27.73;;;15.38;;
20421;SDS011;10370;53.102;18.034;2023-04-21T04:46:32;26.60;;;15.15;;
20421;SDS011;10370;53.102;18.034;2023-04-21T04:51:57;23.75;;;15.25;;
20421;SDS011;10370;53.102;18.034;2023-04-21T04:57:23;24.63;;;14.60;;
20421;SDS011;10370;53.102;18.034;2023-04-21T05:02:48;20.08;;;13.32;;
20421;SDS011;10370;53.102;18.034;2023-04-21T05:08:09;22.38;;;13.82;;
20421;SDS011;10370;53.102;18.034;2023-04-21T05:13:34;22.67;;;13.95;;
20421;SDS011;10370;53.102;18.034;2023-04-21T05:19:02;18.35;;;13.27;;
20421;SDS011;10370;53.102;18.034;2023-04-21T05:24:23;18.92;;;12.75;;
20421;SDS011;10370;53.102;18.034;2023-04-21T05:29:48;18.65;;;12.40;;
20421;SDS011;10370;53.102;18.034;2023-04-21T05:35:10;19.13;;;12.63;;
20421;SDS011;10370;53.102;18.034;2023-04-21T05:40:34;21.05;;;13.15;;
20421;SDS011;10370;53.102;18.034;2023-04-21T05:45:58;23.45;;;12.63;;
20421;SDS011;10370;53.102;18.034;2023-04-21T05:51:23;20.27;;;12.48;;
20421;SDS011;10370;53.102;18.034;2023-04-21T05:56:46;24.00;;;12.50;;
20421;SDS011;10370;53.102;18.034;2023-04-21T06:02:08;25.85;;;14.10;;
20421;SDS011;10370;53.102;18.034;2023-04-21T06:07:34;26.45;;;14.20;;
20421;SDS011;10370;53.102;18.034;2023-04-21T06:12:57;27.23;;;13.93;;
20421;SDS011;10370;53.102;18.034;2023-04-21T06:18:25;24.77;;;13.93;;
20421;SDS011;10370;53.102;18.034;2023-04-21T06:23:46;22.60;;;12.85;;
20421;SDS011;10370;53.102;18.034;2023-04-21T06:29:07;22.45;;;12.73;;
20421;SDS011;10370;53.102;18.034;2023-04-21T06:34:28;19.40;;;11.65;;
20421;SDS011;10370;53.102;18.034;2023-04-21T06:39:51;21.23;;;11.50;;
20421;SDS011;10370;53.102;18.034;2023-04-21T06:45:12;19.15;;;10.95;;
20421;SDS011;10370;53.102;18.034;2023-04-21T06:50:33;17.70;;;10.35;;
20421;SDS011;10370;53.102;18.034;2023-04-21T06:55:56;18.30;;;10.10;;
20421;SDS011;10370;53.102;18.034;2023-04-21T07:01:21;21.55;;;10.43;;
20421;SDS011;10370;53.102;18.034;2023-04-21T07:06:44;17.35;;;9.95;;
20421;SDS011;10370;53.102;18.034;2023-04-21T07:12:08;17.02;;;9.85;;
20421;SDS011;10370;53.102;18.034;2023-04-21T07:17:31;17.15;;;9.73;;
20421;SDS011;10370;53.102;18.034;2023-04-21T07:22:54;16.27;;;9.60;;
20421;SDS011;10370;53.102;18.034;2023-04-21T07:28:15;21.42;;;9.05;;
20421;SDS011;10370;53.102;18.034;2023-04-21T07:33:36;21.38;;;9.25;;
20421;SDS011;10370;53.102;18.034;2023-04-21T07:38:57;12.35;;;7.90;;
20421;SDS011;10370;53.102;18.034;2023-04-21T07:44:18;17.40;;;9.27;;
20421;SDS011;10370;53.102;18.034;2023-04-21T07:49:40;16.45;;;8.68;;
20421;SDS011;10370;53.102;18.034;2023-04-21T07:55:07;12.65;;;7.47;;
20421;SDS011;10370;53.102;18.034;2023-04-21T08:00:32;13.88;;;7.90;;
20421;SDS011;10370;53.102;18.034;2023-04-21T08:05:53;14.77;;;7.63;;
20421;SDS011;10370;53.102;18.034;2023-04-21T08:11:14;10.80;;;6.88;;
20421;SDS011;10370;53.102;18.034;2023-04-21T08:16:35;10.20;;;6.70;;
20421;SDS011;10370;53.102;18.034;2023-04-21T08:21:59;14.40;;;6.03;;
20421;SDS011;10370;53.102;18.034;2023-04-21T08:27:22;11.30;;;6.40;;
20421;SDS011;10370;53.102;18.034;2023-04-21T08:32:45;10.00;;;6.15;;
20421;SDS011;10370;53.102;18.034;2023-04-21T08:38:10;11.80;;;5.43;;
20421;SDS011;10370;53.102;18.034;2023-04-21T08:43:31;11.93;;;6.00;;
20421;SDS011;10370;53.102;18.034;2023-04-21T08:48:58;12.00;;;5.22;;
20421;SDS011;10370;53.102;18.034;2023-04-21T08:54:25;10.38;;;5.88;;
20421;SDS011;10370;53.102;18.034;2023-04-21T08:59:50;8.10;;;4.97;;
20421;SDS011;10370;53.102;18.034;2023-04-21T09:05:11;11.68;;;6.00;;
20421;SDS011;10370;53.102;18.034;2023-04-21T09:10:48;9.70;;;5.95;;
20421;SDS011;10370;53.102;18.034;2023-04-21T09:16:17;7.53;;;5.47;;
20421;SDS011;10370;53.102;18.034;2023-04-21T09:21:40;10.75;;;5.93;;
20421;SDS011;10370;53.102;18.034;2023-04-21T09:48:21;6.18;;;3.50;;
20421;SDS011;10370;53.102;18.034;2023-04-21T09:53:47;6.10;;;3.97;;
20421;SDS011;10370;53.102;18.034;2023-04-21T09:59:12;7.97;;;4.65;;
20421;SDS011;10370;53.102;18.034;2023-04-21T10:04:42;6.60;;;3.80;;
20421;SDS011;10370;53.102;18.034;2023-04-21T10:10:08;9.35;;;4.40;;
20421;SDS011;10370;53.102;18.034;2023-04-21T10:15:41;6.43;;;4.57;;
20421;SDS011;10370;53.102;18.034;2023-04-21T10:21:04;8.65;;;4.68;;
20421;SDS011;10370;53.102;18.034;2023-04-21T10:26:33;10.65;;;4.60;;
20421;SDS011;10370;53.102;18.034;2023-04-21T10:31:56;10.60;;;5.57;;
20421;SDS011;10370;53.102;18.034;2023-04-21T10:37:19;10.23;;;5.45;;
20421;SDS011;10370;53.102;18.034;2023-04-21T10:42:40;9.18;;;5.72;;
20421;SDS011;10370;53.102;18.034;2023-04-21T10:48:07;9.15;;;6.10;;
20421;SDS011;10370;53.102;18.034;2023-04-21T10:53:40;10.68;;;5.78;;
20421;SDS011;10370;53.102;18.034;2023-04-21T10:59:02;11.52;;;5.82;;
20421;SDS011;10370;53.102;18.034;2023-04-21T11:04:31;10.60;;;6.20;;
20421;SDS011;10370;53.102;18.034;2023-04-21T11:09:56;9.27;;;5.65;;
20421;SDS011;10370;53.102;18.034;2023-04-21T11:15:18;9.23;;;5.93;;
20421;SDS011;10370;53.102;18.034;2023-04-21T11:20:39;11.27;;;5.72;;
20421;SDS011;10370;53.102;18.034;2023-04-21T11:26:02;9.32;;;5.00;;
20421;SDS011;10370;53.102;18.034;2023-04-21T11:31:28;10.10;;;5.50;;
20421;SDS011;10370;53.102;18.034;2023-04-21T11:36:51;10.55;;;6.28;;
20421;SDS011;10370;53.102;18.034;2023-04-21T11:42:19;9.73;;;6.13;;
20421;SDS011;10370;53.102;18.034;2023-04-21T11:47:44;10.80;;;5.78;;
20421;SDS011;10370;53.102;18.034;2023-04-21T11:53:07;8.40;;;5.47;;
20421;SDS011;10370;53.102;18.034;2023-04-21T11:58:32;9.43;;;5.90;;
20421;SDS011;10370;53.102;18.034;2023-04-21T12:03:54;13.45;;;6.68;;
20421;SDS011;10370;53.102;18.034;2023-04-21T12:09:20;9.23;;;5.47;;
20421;SDS011;10370;53.102;18.034;2023-04-21T12:14:41;11.27;;;6.28;;
20421;SDS011;10370;53.102;18.034;2023-04-21T12:20:06;11.57;;;6.57;;
20421;SDS011;10370;53.102;18.034;2023-04-21T12:25:32;11.82;;;6.32;;
20421;SDS011;10370;53.102;18.034;2023-04-21T12:30:52;13.68;;;6.57;;
20421;SDS011;10370;53.102;18.034;2023-04-21T12:36:15;7.57;;;5.70;;
20421;SDS011;10370;53.102;18.034;2023-04-21T12:41:39;9.57;;;6.13;;
20421;SDS011;10370;53.102;18.034;2023-04-21T12:47:04;10.40;;;6.13;;
20421;SDS011;10370;53.102;18.034;2023-04-21T12:52:26;10.48;;;6.13;;
20421;SDS011;10370;53.102;18.034;2023-04-21T12:57:49;8.07;;;6.05;;
20421;SDS011;10370;53.102;18.034;2023-04-21T13:03:10;10.23;;;6.15;;
20421;SDS011;10370;53.102;18.034;2023-04-21T13:08:33;12.30;;;6.28;;
20421;SDS011;10370;53.102;18.034;2023-04-21T13:13:57;11.77;;;5.68;;
20421;SDS011;10370;53.102;18.034;2023-04-21T13:19:22;8.40;;;5.20;;
20421;SDS011;10370;53.102;18.034;2023-04-21T13:24:47;13.63;;;5.63;;
20421;SDS011;10370;53.102;18.034;2023-04-21T13:30:09;9.55;;;5.50;;
20421;SDS011;10370;53.102;18.034;2023-04-21T13:35:32;9.93;;;5.53;;
20421;SDS011;10370;53.102;18.034;2023-04-21T13:40:55;10.77;;;5.78;;
20421;SDS011;10370;53.102;18.034;2023-04-21T13:46:19;7.15;;;5.30;;
20421;SDS011;10370;53.102;18.034;2023-04-21T13:51:43;9.55;;;5.30;;
20421;SDS011;10370;53.102;18.034;2023-04-21T13:57:07;8.32;;;5.32;;
20421;SDS011;10370;53.102;18.034;2023-04-21T14:02:34;8.20;;;5.00;;
20421;SDS011;10370;53.102;18.034;2023-04-21T14:07:58;13.38;;;4.97;;
20421;SDS011;10370;53.102;18.034;2023-04-21T14:13:24;9.00;;;4.55;;
20421;SDS011;10370;53.102;18.034;2023-04-21T14:18:58;8.43;;;4.75;;
20421;SDS011;10370;53.102;18.034;2023-04-21T14:24:23;9.35;;;5.07;;
20421;SDS011;10370;53.102;18.034;2023-04-21T14:29:50;7.57;;;5.20;;
20421;SDS011;10370;53.102;18.034;2023-04-21T14:35:16;10.10;;;6.32;;
20421;SDS011;10370;53.102;18.034;2023-04-21T14:40:39;15.45;;;6.00;;
20421;SDS011;10370;53.102;18.034;2023-04-21T14:46:03;9.07;;;4.78;;
20421;SDS011;10370;53.102;18.034;2023-04-21T14:51:29;8.82;;;5.55;;
20421;SDS011;10370;53.102;18.034;2023-04-21T14:56:54;11.30;;;5.40;;
20421;SDS011;10370;53.102;18.034;2023-04-21T15:02:38;11.55;;;6.00;;
20421;SDS011;10370;53.102;18.034;2023-04-21T15:08:03;16.63;;;6.40;;
20421;SDS011;10370;53.102;18.034;2023-04-21T15:13:28;8.93;;;5.68;;
20421;SDS011;10370;53.102;18.034;2023-04-21T15:18:53;9.38;;;5.78;;
20421;SDS011;10370;53.102;18.034;2023-04-21T15:24:18;9.95;;;5.30;;
20421;SDS011;10370;53.102;18.034;2023-04-21T15:29:43;16.73;;;6.68;;
20421;SDS011;10370;53.102;18.034;2023-04-21T15:35:11;11.70;;;5.70;;
20421;SDS011;10370;53.102;18.034;2023-04-21T15:40:36;12.50;;;5.68;;
20421;SDS011;10370;53.102;18.034;2023-04-21T15:46:18;8.77;;;5.68;;
20421;SDS011;10370;53.102;18.034;2023-04-21T15:51:45;10.93;;;5.45;;
20421;SDS011;10370;53.102;18.034;2023-04-21T15:57:10;8.60;;;5.80;;
20421;SDS011;10370;53.102;18.034;2023-04-21T16:02:36;12.32;;;6.05;;
20421;SDS011;10370;53.102;18.034;2023-04-21T16:08:01;11.98;;;5.80;;
20421;SDS011;10370;53.102;18.034;2023-04-21T16:13:26;13.40;;;6.30;;
20421;SDS011;10370;53.102;18.034;2023-04-21T16:18:51;12.75;;;6.25;;
20421;SDS011;10370;53.102;18.034;2023-04-21T16:24:20;9.45;;;5.68;;
20421;SDS011;10370;53.102;18.034;2023-04-21T16:29:46;8.20;;;5.53;;
20421;SDS011;10370;53.102;18.034;2023-04-21T16:35:15;12.68;;;6.97;;
20421;SDS011;10370;53.102;18.034;2023-04-21T16:40:53;9.80;;;5.43;;
20421;SDS011;10370;53.102;18.034;2023-04-21T16:46:24;13.82;;;5.40;;
20421;SDS011;10370;53.102;18.034;2023-04-21T16:51:52;7.43;;;4.82;;
20421;SDS011;10370;53.102;18.034;2023-04-21T16:57:17;8.48;;;5.20;;
20421;SDS011;10370;53.102;18.034;2023-04-21T17:02:45;12.45;;;5.47;;
20421;SDS011;10370;53.102;18.034;2023-04-21T17:08:08;11.10;;;5.63;;
20421;SDS011;10370;53.102;18.034;2023-04-21T17:13:33;10.27;;;4.90;;
20421;SDS011;10370;53.102;18.034;2023-04-21T17:18:58;13.20;;;5.38;;
20421;SDS011;10370;53.102;18.034;2023-04-21T17:24:19;11.20;;;5.63;;
20421;SDS011;10370;53.102;18.034;2023-04-21T17:29:44;13.23;;;5.72;;
20421;SDS011;10370;53.102;18.034;2023-04-21T17:35:06;16.75;;;5.88;;
20421;SDS011;10370;53.102;18.034;2023-04-21T17:40:31;11.80;;;5.63;;
20421;SDS011;10370;53.102;18.034;2023-04-21T17:45:57;10.90;;;5.63;;
20421;SDS011;10370;53.102;18.034;2023-04-21T17:51:22;8.57;;;5.28;;
20421;SDS011;10370;53.102;18.034;2023-04-21T17:56:46;12.05;;;5.85;;
20421;SDS011;10370;53.102;18.034;2023-04-21T18:02:09;9.27;;;5.43;;
20421;SDS011;10370;53.102;18.034;2023-04-21T18:07:33;13.20;;;5.32;;
20421;SDS011;10370;53.102;18.034;2023-04-21T18:12:56;10.05;;;5.78;;
20421;SDS011;10370;53.102;18.034;2023-04-21T18:18:21;10.18;;;5.35;;
20421;SDS011;10370;53.102;18.034;2023-04-21T18:23:48;8.73;;;5.05;;
20421;SDS011;10370;53.102;18.034;2023-04-21T18:29:15;8.95;;;4.95;;
20421;SDS011;10370;53.102;18.034;2023-04-21T18:34:41;7.85;;;5.07;;
20421;SDS011;10370;53.102;18.034;2023-04-21T18:40:02;10.95;;;5.38;;
20421;SDS011;10370;53.102;18.034;2023-04-21T18:45:25;8.80;;;5.22;;
20421;SDS011;10370;53.102;18.034;2023-04-21T18:50:47;11.90;;;5.45;;
20421;SDS011;10370;53.102;18.034;2023-04-21T18:56:09;10.30;;;5.35;;
20421;SDS011;10370;53.102;18.034;2023-04-21T19:01:32;12.57;;;6.07;;
20421;SDS011;10370;53.102;18.034;2023-04-21T19:06:53;14.35;;;5.70;;
20421;SDS011;10370;53.102;18.034;2023-04-21T19:12:15;12.20;;;6.25;;
20421;SDS011;10370;53.102;18.034;2023-04-21T19:17:39;8.20;;;5.32;;
20421;SDS011;10370;53.102;18.034;2023-04-21T19:23:02;10.15;;;5.78;;
20421;SDS011;10370;53.102;18.034;2023-04-21T19:28:30;13.75;;;4.80;;
20421;SDS011;10370;53.102;18.034;2023-04-21T19:33:54;19.23;;;5.40;;
20421;SDS011;10370;53.102;18.034;2023-04-21T19:39:14;8.80;;;4.70;;
20421;SDS011;10370;53.102;18.034;2023-04-21T19:44:39;7.68;;;3.92;;
20421;SDS011;10370;53.102;18.034;2023-04-21T19:50:04;9.48;;;4.10;;
20421;SDS011;10370;53.102;18.034;2023-04-21T19:55:30;10.73;;;4.45;;
20421;SDS011;10370;53.102;18.034;2023-04-21T20:00:53;11.48;;;4.53;;
20421;SDS011;10370;53.102;18.034;2023-04-21T20:06:18;11.95;;;4.57;;
20421;SDS011;10370;53.102;18.034;2023-04-21T20:11:43;7.13;;;4.35;;
20421;SDS011;10370;53.102;18.034;2023-04-21T20:17:08;8.70;;;5.03;;
20421;SDS011;10370;53.102;18.034;2023-04-21T20:22:35;12.35;;;5.40;;
20421;SDS011;10370;53.102;18.034;2023-04-21T20:28:01;11.68;;;5.90;;
20421;SDS011;10370;53.102;18.034;2023-04-21T20:33:21;10.48;;;5.05;;
20421;SDS011;10370;53.102;18.034;2023-04-21T20:38:46;10.45;;;5.80;;
20421;SDS011;10370;53.102;18.034;2023-04-21T20:44:08;20.08;;;7.60;;
20421;SDS011;10370;53.102;18.034;2023-04-21T20:49:36;15.18;;;6.63;;
20421;SDS011;10370;53.102;18.034;2023-04-21T20:55:02;13.85;;;6.38;;
20421;SDS011;10370;53.102;18.034;2023-04-21T21:00:27;14.90;;;5.55;;
20421;SDS011;10370;53.102;18.034;2023-04-21T21:05:56;14.00;;;6.25;;
20421;SDS011;10370;53.102;18.034;2023-04-21T21:11:17;9.32;;;4.75;;
20421;SDS011;10370;53.102;18.034;2023-04-21T21:16:43;9.30;;;4.47;;
20421;SDS011;10370;53.102;18.034;2023-04-21T21:22:04;10.60;;;5.20;;
20421;SDS011;10370;53.102;18.034;2023-04-21T21:27:25;9.80;;;4.63;;
20421;SDS011;10370;53.102;18.034;2023-04-21T21:32:48;11.38;;;4.38;;
20421;SDS011;10370;53.102;18.034;2023-04-21T21:38:15;8.18;;;4.72;;
20421;SDS011;10370;53.102;18.034;2023-04-21T21:43:42;11.98;;;4.80;;
20421;SDS011;10370;53.102;18.034;2023-04-21T21:49:03;8.90;;;4.50;;
20421;SDS011;10370;53.102;18.034;2023-04-21T21:54:29;8.73;;;4.82;;
20421;SDS011;10370;53.102;18.034;2023-04-21T21:59:54;12.85;;;4.90;;
20421;SDS011;10370;53.102;18.034;2023-04-21T22:05:21;9.25;;;4.78;;
20421;SDS011;10370;53.102;18.034;2023-04-21T22:10:43;8.07;;;4.70;;
20421;SDS011;10370;53.102;18.034;2023-04-21T22:16:09;11.50;;;5.45;;
20421;SDS011;10370;53.102;18.034;2023-04-21T22:21:35;8.95;;;5.07;;
20421;SDS011;10370;53.102;18.034;2023-04-21T22:26:59;11.68;;;5.40;;
20421;SDS011;10370;53.102;18.034;2023-04-21T22:32:23;10.07;;;4.68;;
20421;SDS011;10370;53.102;18.034;2023-04-21T22:37:47;8.93;;;4.40;;
20421;SDS011;10370;53.102;18.034;2023-04-21T22:43:13;12.07;;;4.93;;
20421;SDS011;10370;53.102;18.034;2023-04-21T22:48:40;10.45;;;4.60;;
20421;SDS011;10370;53.102;18.034;2023-04-21T22:54:07;7.68;;;4.75;;
20421;SDS011;10370;53.102;18.034;2023-04-21T22:59:33;14.18;;;5.63;;
20421;SDS011;10370;53.102;18.034;2023-04-21T23:05:00;8.80;;;4.93;;
20421;SDS011;10370;53.102;18.034;2023-04-21T23:10:25;11.38;;;5.78;;
20421;SDS011;10370;53.102;18.034;2023-04-21T23:15:50;12.45;;;5.70;;
20421;SDS011;10370;53.102;18.034;2023-04-21T23:21:18;8.50;;;4.75;;
20421;SDS011;10370;53.102;18.034;2023-04-21T23:26:47;11.00;;;5.25;;
20421;SDS011;10370;53.102;18.034;2023-04-21T23:32:11;8.48;;;4.80;;
20421;SDS011;10370;53.102;18.034;2023-04-21T23:37:33;10.80;;;5.15;;
20421;SDS011;10370;53.102;18.034;2023-04-21T23:42:58;13.05;;;5.78;;
20421;SDS011;10370;53.102;18.034;2023-04-21T23:48:22;10.50;;;5.40;;
20421;SDS011;10370;53.102;18.034;2023-04-21T23:53:49;9.05;;;4.85;;
20421;SDS011;10370;53.102;18.034;2023-04-21T23:59:14;12.52;;;5.25;;
